sensor_id;sensor_type;location;lat;lon;timestamp;temperature;humidity
33699;DHT22;20032;52.436;13.312;2023-12-22T00:02:05;5.10;99.90
33699;DHT22;20032;52.436;13.312;2023-12-22T00:04:30;5.10;99.90
33699;DHT22;20032;52.436;13.312;2023-12-22T00:06:55;5.00;99.90
33699;DHT22;20032;52.436;13.312;2023-12-22T00:09:21;5.00;99.90
33699;DHT22;20032;52.436;13.312;2023-12-22T00:11:46;4.90;99.90
33699;DHT22;20032;52.436;13.312;2023-12-22T00:14:12;4.90;99.90
33699;DHT22;20032;52.436;13.312;2023-12-22T00:16:38;4.90;99.90
33699;DHT22;20032;52.436;13.312;2023-12-22T00:19:03;4.90;99.90
33699;DHT22;20032;52.436;13.312;2023-12-22T00:21:29;5.00;99.90
33699;DHT22;20032;52.436;13.312;2023-12-22T00:23:54;5.00;99.90
33699;DHT22;20032;52.436;13.312;2023-12-22T00:26:20;5.00;99.90
33699;DHT22;20032;52.436;13.312;2023-12-22T00:28:46;5.00;99.90
33699;DHT22;20032;52.436;13.312;2023-12-22T00:31:11;5.00;99.90
33699;DHT22;20032;52.436;13.312;2023-12-22T00:33:38;5.00;99.90
33699;DHT22;20032;52.436;13.312;2023-12-22T00:36:03;5.00;99.90
33699;DHT22;20032;52.436;13.312;2023-12-22T00:38:29;5.10;99.90
33699;DHT22;20032;52.436;13.312;2023-12-22T00:40:55;5.10;99.90
33699;DHT22;20032;52.436;13.312;2023-12-22T00:43:20;5.10;99.90
33699;DHT22;20032;52.436;13.312;2023-12-22T00:45:46;5.10;99.90
33699;DHT22;20032;52.436;13.312;2023-12-22T00:48:11;5.10;99.90
33699;DHT22;20032;52.436;13.312;2023-12-22T00:50:37;5.00;99.90
33699;DHT22;20032;52.436;13.312;2023-12-22T00:53:02;4.90;99.90
33699;DHT22;20032;52.436;13.312;2023-12-22T00:55:28;4.90;99.90
33699;DHT22;20032;52.436;13.312;2023-12-22T00:57:53;4.80;99.90
33699;DHT22;20032;52.436;13.312;2023-12-22T01:00:19;4.80;99.90
33699;DHT22;20032;52.436;13.312;2023-12-22T01:02:44;4.80;99.90
33699;DHT22;20032;52.436;13.312;2023-12-22T01:05:10;4.80;99.90
33699;DHT22;20032;52.436;13.312;2023-12-22T01:07:35;4.80;99.90
33699;DHT22;20032;52.436;13.312;2023-12-22T01:10:01;4.70;99.90
33699;DHT22;20032;52.436;13.312;2023-12-22T01:12:29;4.70;99.90
33699;DHT22;20032;52.436;13.312;2023-12-22T01:14:56;4.80;99.90
33699;DHT22;20032;52.436;13.312;2023-12-22T01:17:21;4.80;99.90
33699;DHT22;20032;52.436;13.312;2023-12-22T01:19:47;4.80;99.90
33699;DHT22;20032;52.436;13.312;2023-12-22T01:22:12;4.90;99.90
33699;DHT22;20032;52.436;13.312;2023-12-22T01:24:38;4.90;99.90
33699;DHT22;20032;52.436;13.312;2023-12-22T01:27:06;4.90;99.90
33699;DHT22;20032;52.436;13.312;2023-12-22T01:29:32;4.90;99.90
33699;DHT22;20032;52.436;13.312;2023-12-22T01:31:57;4.90;99.90
33699;DHT22;20032;52.436;13.312;2023-12-22T01:34:23;4.90;99.90
33699;DHT22;20032;52.436;13.312;2023-12-22T01:36:48;4.90;99.90
33699;DHT22;20032;52.436;13.312;2023-12-22T01:39:15;4.90;99.90
33699;DHT22;20032;52.436;13.312;2023-12-22T01:41:41;4.80;99.90
33699;DHT22;20032;52.436;13.312;2023-12-22T01:44:06;4.80;99.90
33699;DHT22;20032;52.436;13.312;2023-12-22T01:46:32;4.80;99.90
33699;DHT22;20032;52.436;13.312;2023-12-22T01:48:59;4.80;99.90
33699;DHT22;20032;52.436;13.312;2023-12-22T01:51:27;4.80;99.90
33699;DHT22;20032;52.436;13.312;2023-12-22T01:53:52;4.80;99.90
33699;DHT22;20032;52.436;13.312;2023-12-22T01:56:18;4.80;99.90
33699;DHT22;20032;52.436;13.312;2023-12-22T01:58:44;4.80;99.90
33699;DHT22;20032;52.436;13.312;2023-12-22T02:01:10;4.90;99.90
33699;DHT22;20032;52.436;13.312;2023-12-22T02:03:36;5.00;99.90
33699;DHT22;20032;52.436;13.312;2023-12-22T02:06:02;4.90;99.90
33699;DHT22;20032;52.436;13.312;2023-12-22T02:08:31;4.90;99.90
33699;DHT22;20032;52.436;13.312;2023-12-22T02:10:58;4.90;99.90
33699;DHT22;20032;52.436;13.312;2023-12-22T02:13:23;4.80;99.90
33699;DHT22;20032;52.436;13.312;2023-12-22T02:16:05;4.80;99.90
33699;DHT22;20032;52.436;13.312;2023-12-22T02:18:35;4.80;99.90
33699;DHT22;20032;52.436;13.312;2023-12-22T02:21:02;4.70;99.90
33699;DHT22;20032;52.436;13.312;2023-12-22T02:23:28;4.70;99.90
33699;DHT22;20032;52.436;13.312;2023-12-22T02:26:06;4.80;99.90
33699;DHT22;20032;52.436;13.312;2023-12-22T02:28:35;4.70;99.90
33699;DHT22;20032;52.436;13.312;2023-12-22T02:31:07;4.70;99.90
33699;DHT22;20032;52.436;13.312;2023-12-22T02:33:36;4.70;99.90
33699;DHT22;20032;52.436;13.312;2023-12-22T02:36:03;4.60;99.90
33699;DHT22;20032;52.436;13.312;2023-12-22T02:38:31;4.60;99.90
33699;DHT22;20032;52.436;13.312;2023-12-22T02:40:57;4.70;99.90
33699;DHT22;20032;52.436;13.312;2023-12-22T02:43:22;4.70;99.90
33699;DHT22;20032;52.436;13.312;2023-12-22T02:45:51;4.70;99.90
33699;DHT22;20032;52.436;13.312;2023-12-22T02:48:17;4.60;99.90
33699;DHT22;20032;52.436;13.312;2023-12-22T02:50:42;4.60;99.90
33699;DHT22;20032;52.436;13.312;2023-12-22T02:53:08;4.60;99.90
33699;DHT22;20032;52.436;13.312;2023-12-22T02:55:33;4.60;99.90
33699;DHT22;20032;52.436;13.312;2023-12-22T02:57:59;4.60;99.90
33699;DHT22;20032;52.436;13.312;2023-12-22T03:00:24;4.60;99.90
33699;DHT22;20032;52.436;13.312;2023-12-22T03:02:50;4.60;99.90
33699;DHT22;20032;52.436;13.312;2023-12-22T03:05:15;4.60;99.90
33699;DHT22;20032;52.436;13.312;2023-12-22T03:07:41;4.60;99.90
33699;DHT22;20032;52.436;13.312;2023-12-22T03:10:06;4.60;99.90
33699;DHT22;20032;52.436;13.312;2023-12-22T03:12:32;4.50;99.90
33699;DHT22;20032;52.436;13.312;2023-12-22T03:14:57;4.50;99.90
33699;DHT22;20032;52.436;13.312;2023-12-22T03:17:23;4.50;99.90
33699;DHT22;20032;52.436;13.312;2023-12-22T03:19:48;4.60;99.90
33699;DHT22;20032;52.436;13.312;2023-12-22T03:22:14;4.60;99.90
33699;DHT22;20032;52.436;13.312;2023-12-22T03:24:39;4.50;99.90
33699;DHT22;20032;52.436;13.312;2023-12-22T03:27:05;4.60;99.90
33699;DHT22;20032;52.436;13.312;2023-12-22T03:29:30;4.60;99.90
33699;DHT22;20032;52.436;13.312;2023-12-22T03:31:56;4.60;99.90
33699;DHT22;20032;52.436;13.312;2023-12-22T03:34:21;4.60;99.90
33699;DHT22;20032;52.436;13.312;2023-12-22T03:36:46;4.60;99.90
33699;DHT22;20032;52.436;13.312;2023-12-22T03:39:14;4.50;99.90
33699;DHT22;20032;52.436;13.312;2023-12-22T03:41:40;4.50;99.90
33699;DHT22;20032;52.436;13.312;2023-12-22T03:44:05;4.50;99.90
33699;DHT22;20032;52.436;13.312;2023-12-22T03:46:31;4.50;99.90
33699;DHT22;20032;52.436;13.312;2023-12-22T03:48:56;4.50;99.90
33699;DHT22;20032;52.436;13.312;2023-12-22T03:51:22;4.60;99.90
33699;DHT22;20032;52.436;13.312;2023-12-22T03:53:47;4.60;99.90
33699;DHT22;20032;52.436;13.312;2023-12-22T03:56:13;4.60;99.90
33699;DHT22;20032;52.436;13.312;2023-12-22T03:58:38;4.60;99.90
33699;DHT22;20032;52.436;13.312;2023-12-22T04:01:04;4.60;99.90
33699;DHT22;20032;52.436;13.312;2023-12-22T04:03:29;4.60;99.90
33699;DHT22;20032;52.436;13.312;2023-12-22T04:05:55;4.60;99.90
33699;DHT22;20032;52.436;13.312;2023-12-22T04:08:20;4.60;99.90
33699;DHT22;20032;52.436;13.312;2023-12-22T04:10:47;4.60;99.90
33699;DHT22;20032;52.436;13.312;2023-12-22T04:13:12;4.40;99.90
33699;DHT22;20032;52.436;13.312;2023-12-22T04:15:38;4.40;99.90
33699;DHT22;20032;52.436;13.312;2023-12-22T04:18:04;4.30;99.90
33699;DHT22;20032;52.436;13.312;2023-12-22T04:20:29;4.20;99.90
33699;DHT22;20032;52.436;13.312;2023-12-22T04:22:54;4.10;99.90
33699;DHT22;20032;52.436;13.312;2023-12-22T04:25:20;4.10;99.90
33699;DHT22;20032;52.436;13.312;2023-12-22T04:27:47;4.20;99.90
33699;DHT22;20032;52.436;13.312;2023-12-22T04:30:13;4.10;99.90
33699;DHT22;20032;52.436;13.312;2023-12-22T04:32:38;4.00;99.90
33699;DHT22;20032;52.436;13.312;2023-12-22T04:35:04;4.00;99.90
33699;DHT22;20032;52.436;13.312;2023-12-22T04:37:29;3.90;99.90
33699;DHT22;20032;52.436;13.312;2023-12-22T04:39:56;4.00;99.90
33699;DHT22;20032;52.436;13.312;2023-12-22T04:42:21;4.00;99.90
33699;DHT22;20032;52.436;13.312;2023-12-22T04:44:47;4.00;99.90
33699;DHT22;20032;52.436;13.312;2023-12-22T04:47:13;4.00;99.90
33699;DHT22;20032;52.436;13.312;2023-12-22T04:49:38;4.00;99.90
33699;DHT22;20032;52.436;13.312;2023-12-22T04:52:04;4.00;99.90
33699;DHT22;20032;52.436;13.312;2023-12-22T04:54:29;4.00;99.90
33699;DHT22;20032;52.436;13.312;2023-12-22T04:56:55;3.90;99.90
33699;DHT22;20032;52.436;13.312;2023-12-22T04:59:21;3.80;99.90
33699;DHT22;20032;52.436;13.312;2023-12-22T05:01:46;3.70;99.90
33699;DHT22;20032;52.436;13.312;2023-12-22T05:04:11;3.70;99.90
33699;DHT22;20032;52.436;13.312;2023-12-22T05:06:37;3.40;99.90
33699;DHT22;20032;52.436;13.312;2023-12-22T05:09:02;3.30;99.90
33699;DHT22;20032;52.436;13.312;2023-12-22T05:11:28;3.20;99.90
33699;DHT22;20032;52.436;13.312;2023-12-22T05:13:54;3.10;99.90
33699;DHT22;20032;52.436;13.312;2023-12-22T05:16:19;3.20;99.90
33699;DHT22;20032;52.436;13.312;2023-12-22T05:18:45;3.20;99.90
33699;DHT22;20032;52.436;13.312;2023-12-22T05:21:12;3.20;99.90
33699;DHT22;20032;52.436;13.312;2023-12-22T05:23:38;3.20;99.90
33699;DHT22;20032;52.436;13.312;2023-12-22T05:26:04;3.30;99.90
33699;DHT22;20032;52.436;13.312;2023-12-22T05:28:29;3.20;99.90
33699;DHT22;20032;52.436;13.312;2023-12-22T05:30:55;3.20;99.90
33699;DHT22;20032;52.436;13.312;2023-12-22T05:33:20;3.20;99.90
33699;DHT22;20032;52.436;13.312;2023-12-22T05:35:46;3.30;99.90
33699;DHT22;20032;52.436;13.312;2023-12-22T05:38:11;3.30;99.90
33699;DHT22;20032;52.436;13.312;2023-12-22T05:40:37;3.30;99.90
33699;DHT22;20032;52.436;13.312;2023-12-22T05:43:02;3.30;99.90
33699;DHT22;20032;52.436;13.312;2023-12-22T05:45:28;3.40;99.90
33699;DHT22;20032;52.436;13.312;2023-12-22T05:47:54;3.40;99.90
33699;DHT22;20032;52.436;13.312;2023-12-22T05:50:19;3.40;99.90
33699;DHT22;20032;52.436;13.312;2023-12-22T05:52:45;3.40;99.90
33699;DHT22;20032;52.436;13.312;2023-12-22T05:55:11;3.40;99.90
33699;DHT22;20032;52.436;13.312;2023-12-22T05:57:37;3.40;99.90
33699;DHT22;20032;52.436;13.312;2023-12-22T06:00:04;3.30;99.90
33699;DHT22;20032;52.436;13.312;2023-12-22T06:02:33;3.40;99.90
33699;DHT22;20032;52.436;13.312;2023-12-22T06:04:58;3.30;99.90
33699;DHT22;20032;52.436;13.312;2023-12-22T06:07:24;3.40;99.90
33699;DHT22;20032;52.436;13.312;2023-12-22T06:09:50;3.50;99.90
33699;DHT22;20032;52.436;13.312;2023-12-22T06:12:15;3.50;99.90
33699;DHT22;20032;52.436;13.312;2023-12-22T06:14:40;3.50;99.90
33699;DHT22;20032;52.436;13.312;2023-12-22T06:17:06;3.50;99.90
33699;DHT22;20032;52.436;13.312;2023-12-22T06:19:31;3.50;99.90
33699;DHT22;20032;52.436;13.312;2023-12-22T06:21:57;3.50;99.90
33699;DHT22;20032;52.436;13.312;2023-12-22T06:24:23;3.50;99.90
33699;DHT22;20032;52.436;13.312;2023-12-22T06:26:49;3.50;99.90
33699;DHT22;20032;52.436;13.312;2023-12-22T06:29:14;3.50;99.90
33699;DHT22;20032;52.436;13.312;2023-12-22T06:31:41;3.50;99.90
33699;DHT22;20032;52.436;13.312;2023-12-22T06:34:06;3.50;99.90
33699;DHT22;20032;52.436;13.312;2023-12-22T06:36:32;3.50;99.90
33699;DHT22;20032;52.436;13.312;2023-12-22T06:38:57;3.50;99.90
33699;DHT22;20032;52.436;13.312;2023-12-22T06:41:26;3.50;99.90
33699;DHT22;20032;52.436;13.312;2023-12-22T06:43:52;3.50;99.90
33699;DHT22;20032;52.436;13.312;2023-12-22T06:46:18;3.50;99.90
33699;DHT22;20032;52.436;13.312;2023-12-22T06:48:45;3.50;99.90
33699;DHT22;20032;52.436;13.312;2023-12-22T06:51:20;3.50;99.90
33699;DHT22;20032;52.436;13.312;2023-12-22T06:53:47;3.60;99.90
33699;DHT22;20032;52.436;13.312;2023-12-22T06:56:21;3.60;99.90
33699;DHT22;20032;52.436;13.312;2023-12-22T06:58:48;3.50;99.90
33699;DHT22;20032;52.436;13.312;2023-12-22T07:03:50;3.50;99.90
33699;DHT22;20032;52.436;13.312;2023-12-22T07:06:16;3.50;99.90
33699;DHT22;20032;52.436;13.312;2023-12-22T07:08:43;3.60;99.90
33699;DHT22;20032;52.436;13.312;2023-12-22T07:11:10;3.70;99.90
33699;DHT22;20032;52.436;13.312;2023-12-22T07:13:36;3.80;99.90
33699;DHT22;20032;52.436;13.312;2023-12-22T07:16:02;3.90;99.90
33699;DHT22;20032;52.436;13.312;2023-12-22T07:18:29;3.90;99.90
33699;DHT22;20032;52.436;13.312;2023-12-22T07:20:56;3.90;99.90
33699;DHT22;20032;52.436;13.312;2023-12-22T07:23:23;3.90;99.90
33699;DHT22;20032;52.436;13.312;2023-12-22T07:25:49;3.90;99.90
33699;DHT22;20032;52.436;13.312;2023-12-22T07:28:14;4.00;99.90
33699;DHT22;20032;52.436;13.312;2023-12-22T07:30:41;3.90;99.90
33699;DHT22;20032;52.436;13.312;2023-12-22T07:33:06;4.00;99.90
33699;DHT22;20032;52.436;13.312;2023-12-22T07:35:32;4.00;99.90
33699;DHT22;20032;52.436;13.312;2023-12-22T07:37:57;4.10;99.90
33699;DHT22;20032;52.436;13.312;2023-12-22T07:40:23;4.00;99.90
33699;DHT22;20032;52.436;13.312;2023-12-22T07:42:49;4.00;99.90
33699;DHT22;20032;52.436;13.312;2023-12-22T07:45:16;3.90;99.90
33699;DHT22;20032;52.436;13.312;2023-12-22T07:47:41;3.90;99.90
33699;DHT22;20032;52.436;13.312;2023-12-22T07:50:07;4.00;99.90
33699;DHT22;20032;52.436;13.312;2023-12-22T07:52:35;4.00;99.90
33699;DHT22;20032;52.436;13.312;2023-12-22T07:55:05;4.00;99.90
33699;DHT22;20032;52.436;13.312;2023-12-22T07:57:31;4.00;99.90
33699;DHT22;20032;52.436;13.312;2023-12-22T07:59:56;4.00;99.90
33699;DHT22;20032;52.436;13.312;2023-12-22T08:02:22;4.00;99.90
33699;DHT22;20032;52.436;13.312;2023-12-22T08:04:48;4.10;99.90
33699;DHT22;20032;52.436;13.312;2023-12-22T08:07:14;4.10;99.90
33699;DHT22;20032;52.436;13.312;2023-12-22T08:09:39;4.10;99.90
33699;DHT22;20032;52.436;13.312;2023-12-22T08:12:05;4.00;99.90
33699;DHT22;20032;52.436;13.312;2023-12-22T08:14:31;4.00;99.90
33699;DHT22;20032;52.436;13.312;2023-12-22T08:16:57;4.00;99.90
33699;DHT22;20032;52.436;13.312;2023-12-22T08:19:22;4.00;99.90
33699;DHT22;20032;52.436;13.312;2023-12-22T08:21:48;3.90;99.90
33699;DHT22;20032;52.436;13.312;2023-12-22T08:24:13;3.70;99.90
33699;DHT22;20032;52.436;13.312;2023-12-22T08:26:39;3.70;99.90
33699;DHT22;20032;52.436;13.312;2023-12-22T08:29:04;3.70;99.90
33699;DHT22;20032;52.436;13.312;2023-12-22T08:31:29;3.70;99.90
33699;DHT22;20032;52.436;13.312;2023-12-22T08:33:55;3.70;99.90
33699;DHT22;20032;52.436;13.312;2023-12-22T08:36:21;3.70;99.90
33699;DHT22;20032;52.436;13.312;2023-12-22T08:38:46;3.70;99.90
33699;DHT22;20032;52.436;13.312;2023-12-22T08:41:12;3.70;99.90
33699;DHT22;20032;52.436;13.312;2023-12-22T08:43:39;3.60;99.90
33699;DHT22;20032;52.436;13.312;2023-12-22T08:46:05;3.60;99.90
33699;DHT22;20032;52.436;13.312;2023-12-22T08:48:31;3.60;99.90
33699;DHT22;20032;52.436;13.312;2023-12-22T08:50:56;3.60;99.90
33699;DHT22;20032;52.436;13.312;2023-12-22T08:53:22;3.70;99.90
33699;DHT22;20032;52.436;13.312;2023-12-22T08:55:48;3.70;99.90
33699;DHT22;20032;52.436;13.312;2023-12-22T08:58:13;3.80;99.90
33699;DHT22;20032;52.436;13.312;2023-12-22T09:00:38;3.80;99.90
33699;DHT22;20032;52.436;13.312;2023-12-22T09:03:04;3.90;99.90
33699;DHT22;20032;52.436;13.312;2023-12-22T09:05:29;4.00;99.90
33699;DHT22;20032;52.436;13.312;2023-12-22T09:07:55;4.00;99.90
33699;DHT22;20032;52.436;13.312;2023-12-22T09:10:20;4.00;99.90
33699;DHT22;20032;52.436;13.312;2023-12-22T09:12:46;4.00;99.90
33699;DHT22;20032;52.436;13.312;2023-12-22T09:15:11;4.00;99.90
33699;DHT22;20032;52.436;13.312;2023-12-22T09:17:38;4.10;99.90
33699;DHT22;20032;52.436;13.312;2023-12-22T09:20:04;4.20;99.90
33699;DHT22;20032;52.436;13.312;2023-12-22T09:22:29;4.20;99.90
33699;DHT22;20032;52.436;13.312;2023-12-22T09:24:54;4.20;99.90
33699;DHT22;20032;52.436;13.312;2023-12-22T09:27:20;4.10;99.90
33699;DHT22;20032;52.436;13.312;2023-12-22T09:29:45;4.00;99.90
33699;DHT22;20032;52.436;13.312;2023-12-22T09:32:11;4.10;99.90
33699;DHT22;20032;52.436;13.312;2023-12-22T09:34:37;4.30;99.90
33699;DHT22;20032;52.436;13.312;2023-12-22T09:37:02;4.50;99.90
33699;DHT22;20032;52.436;13.312;2023-12-22T09:39:28;4.50;99.90
33699;DHT22;20032;52.436;13.312;2023-12-22T09:41:54;4.50;99.90
33699;DHT22;20032;52.436;13.312;2023-12-22T09:44:21;4.50;99.90
33699;DHT22;20032;52.436;13.312;2023-12-22T09:46:48;4.60;99.90
33699;DHT22;20032;52.436;13.312;2023-12-22T09:49:17;4.70;99.90
33699;DHT22;20032;52.436;13.312;2023-12-22T09:51:44;4.70;99.90
33699;DHT22;20032;52.436;13.312;2023-12-22T09:54:13;4.80;99.90
33699;DHT22;20032;52.436;13.312;2023-12-22T09:56:40;4.80;99.90
33699;DHT22;20032;52.436;13.312;2023-12-22T09:59:12;4.70;99.90
33699;DHT22;20032;52.436;13.312;2023-12-22T10:04:06;4.80;99.90
33699;DHT22;20032;52.436;13.312;2023-12-22T10:06:31;4.80;99.90
33699;DHT22;20032;52.436;13.312;2023-12-22T10:08:57;4.90;99.90
33699;DHT22;20032;52.436;13.312;2023-12-22T10:11:24;4.90;99.90
33699;DHT22;20032;52.436;13.312;2023-12-22T10:13:50;5.00;99.90
33699;DHT22;20032;52.436;13.312;2023-12-22T10:16:18;5.00;99.90
33699;DHT22;20032;52.436;13.312;2023-12-22T10:18:44;5.00;99.90
33699;DHT22;20032;52.436;13.312;2023-12-22T10:21:09;4.90;99.90
33699;DHT22;20032;52.436;13.312;2023-12-22T10:23:35;4.90;99.90
33699;DHT22;20032;52.436;13.312;2023-12-22T10:26:00;5.10;99.90
33699;DHT22;20032;52.436;13.312;2023-12-22T10:28:27;5.10;99.90
33699;DHT22;20032;52.436;13.312;2023-12-22T10:30:53;5.20;99.90
33699;DHT22;20032;52.436;13.312;2023-12-22T10:33:21;5.30;99.90
33699;DHT22;20032;52.436;13.312;2023-12-22T10:35:47;5.40;99.90
33699;DHT22;20032;52.436;13.312;2023-12-22T10:38:14;5.30;99.90
33699;DHT22;20032;52.436;13.312;2023-12-22T10:40:42;5.40;99.90
33699;DHT22;20032;52.436;13.312;2023-12-22T10:43:08;5.30;99.90
33699;DHT22;20032;52.436;13.312;2023-12-22T10:45:34;5.40;99.90
33699;DHT22;20032;52.436;13.312;2023-12-22T10:48:00;5.30;99.90
33699;DHT22;20032;52.436;13.312;2023-12-22T10:50:28;5.30;99.90
33699;DHT22;20032;52.436;13.312;2023-12-22T10:52:53;5.30;99.90
33699;DHT22;20032;52.436;13.312;2023-12-22T10:55:19;5.30;99.90
33699;DHT22;20032;52.436;13.312;2023-12-22T10:57:46;5.40;99.90
33699;DHT22;20032;52.436;13.312;2023-12-22T11:00:15;5.40;99.90
33699;DHT22;20032;52.436;13.312;2023-12-22T11:02:42;5.50;99.90
33699;DHT22;20032;52.436;13.312;2023-12-22T11:05:10;5.50;99.90
33699;DHT22;20032;52.436;13.312;2023-12-22T11:07:37;5.50;99.90
33699;DHT22;20032;52.436;13.312;2023-12-22T11:10:06;5.60;99.90
33699;DHT22;20032;52.436;13.312;2023-12-22T11:12:36;5.60;99.90
33699;DHT22;20032;52.436;13.312;2023-12-22T11:15:03;5.80;99.90
33699;DHT22;20032;52.436;13.312;2023-12-22T11:17:32;5.80;99.90
33699;DHT22;20032;52.436;13.312;2023-12-22T11:19:59;5.90;99.90
33699;DHT22;20032;52.436;13.312;2023-12-22T11:22:25;5.80;99.90
33699;DHT22;20032;52.436;13.312;2023-12-22T11:24:51;5.90;99.90
33699;DHT22;20032;52.436;13.312;2023-12-22T11:27:18;6.00;99.90
33699;DHT22;20032;52.436;13.312;2023-12-22T11:29:47;6.20;99.90
33699;DHT22;20032;52.436;13.312;2023-12-22T11:32:15;6.30;99.90
33699;DHT22;20032;52.436;13.312;2023-12-22T11:34:42;6.40;99.90
33699;DHT22;20032;52.436;13.312;2023-12-22T11:37:09;6.30;99.90
33699;DHT22;20032;52.436;13.312;2023-12-22T11:39:36;6.40;99.90
33699;DHT22;20032;52.436;13.312;2023-12-22T11:42:03;6.30;99.90
33699;DHT22;20032;52.436;13.312;2023-12-22T11:44:29;6.20;99.90
33699;DHT22;20032;52.436;13.312;2023-12-22T11:47:10;6.00;99.90
33699;DHT22;20032;52.436;13.312;2023-12-22T11:49:41;5.90;99.90
33699;DHT22;20032;52.436;13.312;2023-12-22T11:52:15;5.80;99.90
33699;DHT22;20032;52.436;13.312;2023-12-22T11:54:50;5.70;99.90
33699;DHT22;20032;52.436;13.312;2023-12-22T12:00:02;5.70;99.90
33699;DHT22;20032;52.436;13.312;2023-12-22T12:02:30;5.80;99.90
33699;DHT22;20032;52.436;13.312;2023-12-22T12:04:58;5.90;99.90
33699;DHT22;20032;52.436;13.312;2023-12-22T12:07:45;5.90;99.90
33699;DHT22;20032;52.436;13.312;2023-12-22T12:10:50;6.10;99.90
33699;DHT22;20032;52.436;13.312;2023-12-22T12:13:07;6.10;99.90
33699;DHT22;20032;52.436;13.312;2023-12-22T12:15:34;6.00;99.90
33699;DHT22;20032;52.436;13.312;2023-12-22T12:18:00;5.80;99.90
33699;DHT22;20032;52.436;13.312;2023-12-22T12:20:26;5.90;99.90
33699;DHT22;20032;52.436;13.312;2023-12-22T12:22:53;6.00;99.90
33699;DHT22;20032;52.436;13.312;2023-12-22T12:25:22;6.00;99.90
33699;DHT22;20032;52.436;13.312;2023-12-22T12:27:50;6.00;99.90
33699;DHT22;20032;52.436;13.312;2023-12-22T12:30:16;5.90;99.90
33699;DHT22;20032;52.436;13.312;2023-12-22T12:32:43;5.90;99.90
33699;DHT22;20032;52.436;13.312;2023-12-22T12:35:10;6.00;99.90
33699;DHT22;20032;52.436;13.312;2023-12-22T12:37:36;6.10;99.90
33699;DHT22;20032;52.436;13.312;2023-12-22T12:40:02;6.30;99.90
33699;DHT22;20032;52.436;13.312;2023-12-22T12:42:31;6.20;99.90
33699;DHT22;20032;52.436;13.312;2023-12-22T12:44:57;6.10;99.90
33699;DHT22;20032;52.436;13.312;2023-12-22T12:47:22;6.00;99.90
33699;DHT22;20032;52.436;13.312;2023-12-22T12:49:57;5.90;99.90
33699;DHT22;20032;52.436;13.312;2023-12-22T12:52:23;5.90;99.90
33699;DHT22;20032;52.436;13.312;2023-12-22T12:54:50;5.80;99.90
33699;DHT22;20032;52.436;13.312;2023-12-22T12:57:18;5.70;99.90
33699;DHT22;20032;52.436;13.312;2023-12-22T12:59:47;5.70;99.90
33699;DHT22;20032;52.436;13.312;2023-12-22T13:02:13;5.70;99.90
33699;DHT22;20032;52.436;13.312;2023-12-22T13:04:39;5.70;99.90
33699;DHT22;20032;52.436;13.312;2023-12-22T13:07:04;5.90;99.90
33699;DHT22;20032;52.436;13.312;2023-12-22T13:09:33;6.00;99.90
33699;DHT22;20032;52.436;13.312;2023-12-22T13:12:00;6.10;99.90
33699;DHT22;20032;52.436;13.312;2023-12-22T13:14:27;6.00;99.90
33699;DHT22;20032;52.436;13.312;2023-12-22T13:16:54;5.90;99.90
33699;DHT22;20032;52.436;13.312;2023-12-22T13:19:22;5.80;99.90
33699;DHT22;20032;52.436;13.312;2023-12-22T13:21:48;5.70;99.90
33699;DHT22;20032;52.436;13.312;2023-12-22T13:24:15;5.60;99.90
33699;DHT22;20032;52.436;13.312;2023-12-22T13:26:41;5.60;99.90
33699;DHT22;20032;52.436;13.312;2023-12-22T13:29:08;5.70;99.90
33699;DHT22;20032;52.436;13.312;2023-12-22T13:31:37;5.70;99.90
33699;DHT22;20032;52.436;13.312;2023-12-22T13:34:03;5.60;99.90
33699;DHT22;20032;52.436;13.312;2023-12-22T13:36:34;5.60;99.90
33699;DHT22;20032;52.436;13.312;2023-12-22T13:39:00;5.60;99.90
33699;DHT22;20032;52.436;13.312;2023-12-22T13:41:26;5.70;99.90
33699;DHT22;20032;52.436;13.312;2023-12-22T13:43:52;5.60;99.90
33699;DHT22;20032;52.436;13.312;2023-12-22T13:46:18;5.60;99.90
33699;DHT22;20032;52.436;13.312;2023-12-22T13:48:44;5.50;99.90
33699;DHT22;20032;52.436;13.312;2023-12-22T13:51:10;5.50;99.90
33699;DHT22;20032;52.436;13.312;2023-12-22T13:53:46;5.60;99.90
33699;DHT22;20032;52.436;13.312;2023-12-22T13:56:11;5.60;99.90
33699;DHT22;20032;52.436;13.312;2023-12-22T13:58:44;5.70;99.90
33699;DHT22;20032;52.436;13.312;2023-12-22T14:01:13;5.80;99.90
33699;DHT22;20032;52.436;13.312;2023-12-22T14:03:40;5.70;99.90
33699;DHT22;20032;52.436;13.312;2023-12-22T14:06:06;5.60;99.90
33699;DHT22;20032;52.436;13.312;2023-12-22T14:08:35;5.50;99.90
33699;DHT22;20032;52.436;13.312;2023-12-22T14:11:01;5.50;99.90
33699;DHT22;20032;52.436;13.312;2023-12-22T14:13:26;5.40;99.90
33699;DHT22;20032;52.436;13.312;2023-12-22T14:15:52;5.30;99.90
33699;DHT22;20032;52.436;13.312;2023-12-22T14:18:18;5.20;99.90
33699;DHT22;20032;52.436;13.312;2023-12-22T14:20:44;5.10;99.90
33699;DHT22;20032;52.436;13.312;2023-12-22T14:23:11;5.00;99.90
33699;DHT22;20032;52.436;13.312;2023-12-22T14:25:42;4.90;99.90
33699;DHT22;20032;52.436;13.312;2023-12-22T14:28:08;4.80;99.90
33699;DHT22;20032;52.436;13.312;2023-12-22T14:30:33;4.80;99.90
33699;DHT22;20032;52.436;13.312;2023-12-22T14:32:59;4.70;99.90
33699;DHT22;20032;52.436;13.312;2023-12-22T14:35:25;4.60;99.90
33699;DHT22;20032;52.436;13.312;2023-12-22T14:37:50;4.60;99.90
33699;DHT22;20032;52.436;13.312;2023-12-22T14:40:16;4.60;99.90
33699;DHT22;20032;52.436;13.312;2023-12-22T14:42:41;4.60;99.90
33699;DHT22;20032;52.436;13.312;2023-12-22T14:45:07;4.60;99.90
33699;DHT22;20032;52.436;13.312;2023-12-22T14:47:32;4.60;99.90
33699;DHT22;20032;52.436;13.312;2023-12-22T14:49:59;4.60;99.90
33699;DHT22;20032;52.436;13.312;2023-12-22T14:52:30;4.50;99.90
33699;DHT22;20032;52.436;13.312;2023-12-22T14:54:57;4.50;99.90
33699;DHT22;20032;52.436;13.312;2023-12-22T14:57:23;4.60;99.90
33699;DHT22;20032;52.436;13.312;2023-12-22T14:59:48;4.50;99.90
33699;DHT22;20032;52.436;13.312;2023-12-22T15:02:14;4.50;99.90
33699;DHT22;20032;52.436;13.312;2023-12-22T15:04:39;4.50;99.90
33699;DHT22;20032;52.436;13.312;2023-12-22T15:07:05;4.50;99.90
33699;DHT22;20032;52.436;13.312;2023-12-22T15:09:31;4.40;99.90
33699;DHT22;20032;52.436;13.312;2023-12-22T15:11:57;4.40;99.90
33699;DHT22;20032;52.436;13.312;2023-12-22T15:14:22;4.40;99.90
33699;DHT22;20032;52.436;13.312;2023-12-22T15:16:48;4.40;99.90
33699;DHT22;20032;52.436;13.312;2023-12-22T15:19:16;4.40;99.90
33699;DHT22;20032;52.436;13.312;2023-12-22T15:21:43;4.40;99.90
33699;DHT22;20032;52.436;13.312;2023-12-22T15:24:09;4.40;99.90
33699;DHT22;20032;52.436;13.312;2023-12-22T15:26:35;4.40;99.90
33699;DHT22;20032;52.436;13.312;2023-12-22T15:29:03;4.30;99.90
33699;DHT22;20032;52.436;13.312;2023-12-22T15:31:29;4.40;99.90
33699;DHT22;20032;52.436;13.312;2023-12-22T15:33:56;4.40;99.90